createdAt,value
2017-04-20T00:00:00.920Z,1030.57
2017-04-20T00:00:11.267Z,1030.52
2017-04-20T00:00:20.906Z,1030.52
2017-04-20T00:00:30.906Z,1030.61
2017-04-20T00:00:40.892Z,1030.53
2017-04-20T00:00:50.885Z,1030.51
2017-04-20T00:01:00.904Z,1030.54
2017-04-20T00:01:10.874Z,1030.5
2017-04-20T00:01:20.865Z,1030.52
2017-04-20T00:01:30.862Z,1030.51
2017-04-20T00:01:40.854Z,1030.52
2017-04-20T00:01:50.513Z,1030.53
2017-04-20T00:02:00.843Z,1030.52
2017-04-20T00:02:10.838Z,1030.52
2017-04-20T00:02:20.833Z,1030.48
2017-04-20T00:02:30.824Z,1030.5
2017-04-20T00:02:40.487Z,1030.5
2017-04-20T00:02:50.601Z,1030.5
2017-04-20T00:03:00.804Z,1030.5
2017-04-20T00:03:11.527Z,1030.5
2017-04-20T00:03:20.792Z,1030.44
2017-04-20T00:03:30.784Z,1030.51
2017-04-20T00:03:40.445Z,1030.51
2017-04-20T00:03:50.437Z,1030.55
2017-04-20T00:04:00.765Z,1030.49
2017-04-20T00:04:10.763Z,1030.52
2017-04-20T00:04:20.751Z,1030.5
2017-04-20T00:04:30.410Z,1030.5
2017-04-20T00:04:40.742Z,1030.5
2017-04-20T00:04:50.736Z,1030.5
2017-04-20T00:05:00.185Z,1030.53
2017-04-20T00:05:11.088Z,1030.49
2017-04-20T00:05:20.715Z,1030.51
2017-04-20T00:05:30.371Z,1030.55
2017-04-20T00:05:40.701Z,1030.53
2017-04-20T00:05:50.697Z,1030.53
2017-04-20T00:06:00.689Z,1030.48
2017-04-20T00:06:10.685Z,1030.48
2017-04-20T00:06:20.674Z,1030.58
2017-04-20T00:06:30.672Z,1030.51
2017-04-20T00:06:40.686Z,1030.56
2017-04-20T00:06:50.659Z,1030.54
2017-04-20T00:07:00.649Z,1030.55
2017-04-20T00:07:10.646Z,1030.55
2017-04-20T00:07:20.638Z,1030.54
2017-04-20T00:07:30.641Z,1030.55
2017-04-20T00:07:40.931Z,1030.6
2017-04-20T00:07:50.620Z,1030.57
2017-04-20T00:08:00.617Z,1030.51
2017-04-20T00:08:10.609Z,1030.49
2017-04-20T00:08:20.955Z,1030.53
2017-04-20T00:08:30.260Z,1030.56
2017-04-20T00:08:40.585Z,1030.57
2017-04-20T00:08:50.580Z,1030.58
2017-04-20T00:09:00.575Z,1030.57
2017-04-20T00:09:10.567Z,1030.56
2017-04-20T00:09:20.561Z,1030.58
2017-04-20T00:09:30.350Z,1030.54
2017-04-20T00:09:40.551Z,1030.57
2017-04-20T00:09:50.545Z,1030.59
2017-04-20T00:10:00.901Z,1030.56
2017-04-20T00:10:10.196Z,1030.54
2017-04-20T00:10:20.190Z,1030.5
2017-04-20T00:10:30.518Z,1030.53
2017-04-20T00:10:40.518Z,1030.58
2017-04-20T00:10:50.505Z,1030.61
2017-04-20T00:11:00.519Z,1030.56
2017-04-20T00:11:10.537Z,1030.5
2017-04-20T00:11:20.484Z,1030.53
2017-04-20T00:11:30.145Z,1030.57
2017-04-20T00:11:40.136Z,1030.58
2017-04-20T00:11:50.468Z,1030.59
2017-04-20T00:12:00.459Z,1030.57
2017-04-20T00:12:10.807Z,1030.6
2017-04-20T00:12:20.446Z,1030.56
2017-04-20T00:12:30.442Z,1030.55
2017-04-20T00:12:40.692Z,1030.57
2017-04-20T00:12:50.427Z,1030.55
2017-04-20T00:13:00.421Z,1030.61
2017-04-20T00:13:10.416Z,1030.58
2017-04-20T00:13:20.422Z,1030.62
2017-04-20T00:13:30.404Z,1030.54
2017-04-20T00:13:40.396Z,1030.56
2017-04-20T00:13:50.055Z,1030.54
2017-04-20T00:14:00.385Z,1030.54
2017-04-20T00:14:10.042Z,1030.56
2017-04-20T00:14:20.374Z,1030.6
2017-04-20T00:14:30.363Z,1030.55
2017-04-20T00:14:40.362Z,1030.54
2017-04-20T00:14:50.352Z,1030.56
2017-04-20T00:15:00.346Z,1030.61
2017-04-20T00:15:10.339Z,1030.61
2017-04-20T00:15:20.333Z,1030.62
2017-04-20T00:15:30.342Z,1030.57
2017-04-20T00:15:40.319Z,1030.53
2017-04-20T00:15:50.315Z,1030.61
2017-04-20T00:16:00.309Z,1030.59
2017-04-20T00:16:10.301Z,1030.58
2017-04-20T00:16:20.293Z,1030.63
2017-04-20T00:16:29.954Z,1030.55
2017-04-20T00:16:40.282Z,1030.54
2017-04-20T00:16:50.274Z,1030.6
2017-04-20T00:17:00.267Z,1030.56
2017-04-20T00:17:10.262Z,1030.61
2017-04-20T00:17:20.255Z,1030.58
2017-04-20T00:17:29.919Z,1030.54
2017-04-20T00:17:40.492Z,1030.6
2017-04-20T00:17:50.235Z,1030.62
2017-04-20T00:18:00.231Z,1030.53
2017-04-20T00:18:10.226Z,1030.58
2017-04-20T00:18:20.219Z,1030.57
2017-04-20T00:18:30.212Z,1030.53
2017-04-20T00:18:40.209Z,1030.58
2017-04-20T00:18:50.199Z,1030.58
2017-04-20T00:19:00.194Z,1030.54
2017-04-20T00:19:10.187Z,1030.56
2017-04-20T00:19:19.843Z,1030.58
2017-04-20T00:19:30.172Z,1030.6
2017-04-20T00:19:40.167Z,1030.58
2017-04-20T00:19:49.827Z,1030.56
2017-04-20T00:20:00.155Z,1030.58
2017-04-20T00:20:10.149Z,1030.52
2017-04-20T00:20:20.142Z,1030.56
2017-04-20T00:20:30.136Z,1030.54
2017-04-20T00:20:39.793Z,1030.62
2017-04-20T00:20:50.121Z,1030.57
2017-04-20T00:21:00.115Z,1030.63
2017-04-20T00:21:10.109Z,1030.55
2017-04-20T00:21:20.709Z,1030.56
2017-04-20T00:21:30.110Z,1030.58
2017-04-20T00:21:40.090Z,1030.57
2017-04-20T00:21:50.084Z,1030.54
2017-04-20T00:21:59.744Z,1030.51
2017-04-20T00:22:10.069Z,1030.52
2017-04-20T00:22:20.064Z,1030.55
2017-04-20T00:22:30.057Z,1030.57
2017-04-20T00:22:40.051Z,1030.57
2017-04-20T00:22:50.049Z,1030.56
2017-04-20T00:23:00.392Z,1030.53
2017-04-20T00:23:10.033Z,1030.54
2017-04-20T00:23:20.027Z,1030.55
2017-04-20T00:23:30.036Z,1030.53
2017-04-20T00:23:39.680Z,1030.55
2017-04-20T00:23:50.015Z,1030.52
2017-04-20T00:24:00.003Z,1030.55
2017-04-20T00:24:09.995Z,1030.53
2017-04-20T00:24:19.988Z,1030.53
2017-04-20T00:24:29.983Z,1030.52
2017-04-20T00:24:40.479Z,1030.52
2017-04-20T00:24:49.631Z,1030.49
2017-04-20T00:24:59.966Z,1030.52
2017-04-20T00:25:09.956Z,1030.55
2017-04-20T00:25:19.947Z,1030.47
2017-04-20T00:25:29.944Z,1030.48
2017-04-20T00:25:39.938Z,1030.5
2017-04-20T00:25:49.928Z,1030.49
2017-04-20T00:25:59.922Z,1030.52
2017-04-20T00:26:09.916Z,1030.53
2017-04-20T00:26:19.911Z,1030.5
2017-04-20T00:26:29.903Z,1030.51
2017-04-20T00:26:39.897Z,1030.5
2017-04-20T00:26:49.895Z,1030.51
2017-04-20T00:26:59.884Z,1030.5
2017-04-20T00:27:09.883Z,1030.51
2017-04-20T00:27:19.873Z,1030.47
2017-04-20T00:27:29.865Z,1030.49
2017-04-20T00:27:39.862Z,1030.47
2017-04-20T00:27:49.853Z,1030.47
2017-04-20T00:27:59.849Z,1030.5
2017-04-20T00:28:09.841Z,1030.46
2017-04-20T00:28:19.838Z,1030.41
2017-04-20T00:28:30.181Z,1030.47
2017-04-20T00:28:39.821Z,1030.48
2017-04-20T00:28:49.816Z,1030.48
2017-04-20T00:28:59.808Z,1030.48
2017-04-20T00:29:09.837Z,1030.46
2017-04-20T00:29:19.466Z,1030.44
2017-04-20T00:29:29.789Z,1030.45
2017-04-20T00:29:39.805Z,1030.4
2017-04-20T00:29:49.441Z,1030.4
2017-04-20T00:29:59.773Z,1030.39
2017-04-20T00:30:09.763Z,1030.44
2017-04-20T00:30:19.761Z,1030.45
2017-04-20T00:30:29.749Z,1030.43
2017-04-20T00:30:39.745Z,1030.46
2017-04-20T00:30:49.406Z,1030.46
2017-04-20T00:30:59.734Z,1030.4
2017-04-20T00:31:09.726Z,1030.43
2017-04-20T00:31:19.383Z,1030.38
2017-04-20T00:31:29.379Z,1030.42
2017-04-20T00:31:39.472Z,1030.36
2017-04-20T00:31:49.699Z,1030.43
2017-04-20T00:31:59.694Z,1030.4
2017-04-20T00:32:09.687Z,1030.41
2017-04-20T00:32:19.680Z,1030.44
2017-04-20T00:32:29.338Z,1030.43
2017-04-20T00:32:39.915Z,1030.45
2017-04-20T00:32:49.680Z,1030.44
2017-04-20T00:32:59.656Z,1030.41
2017-04-20T00:33:10.017Z,1030.45
2017-04-20T00:33:19.643Z,1030.43
2017-04-20T00:33:29.637Z,1030.37
2017-04-20T00:33:39.627Z,1030.37
2017-04-20T00:33:49.289Z,1030.38
2017-04-20T00:33:59.617Z,1030.4
2017-04-20T00:34:09.612Z,1030.38
2017-04-20T00:34:19.603Z,1030.42
2017-04-20T00:34:29.597Z,1030.39
2017-04-20T00:34:39.590Z,1030.4
2017-04-20T00:34:49.587Z,1030.35
2017-04-20T00:34:59.579Z,1030.39
2017-04-20T00:35:09.573Z,1030.39
2017-04-20T00:35:19.579Z,1030.38
2017-04-20T00:35:29.557Z,1030.38
2017-04-20T00:35:39.909Z,1030.39
2017-04-20T00:35:49.545Z,1030.41
2017-04-20T00:35:59.205Z,1030.43
2017-04-20T00:36:09.535Z,1030.38
2017-04-20T00:36:19.526Z,1030.39
2017-04-20T00:36:29.524Z,1030.41
2017-04-20T00:36:39.182Z,1030.36
2017-04-20T00:36:49.507Z,1030.35
2017-04-20T00:36:59.503Z,1030.37
2017-04-20T00:37:09.495Z,1030.37
2017-04-20T00:37:19.156Z,1030.42
2017-04-20T00:37:29.485Z,1030.43
2017-04-20T00:37:39.726Z,1030.42
2017-04-20T00:37:49.468Z,1030.4
2017-04-20T00:37:59.130Z,1030.39
2017-04-20T00:38:09.455Z,1030.41
2017-04-20T00:38:19.115Z,1030.45
2017-04-20T00:38:29.444Z,1030.39
2017-04-20T00:38:39.438Z,1030.4
2017-04-20T00:38:49.433Z,1030.45
2017-04-20T00:38:59.424Z,1030.4
2017-04-20T00:39:09.419Z,1030.36
2017-04-20T00:39:19.412Z,1030.39
2017-04-20T00:39:29.403Z,1030.41
2017-04-20T00:39:39.398Z,1030.4
2017-04-20T00:39:49.398Z,1030.41
2017-04-20T00:39:59.386Z,1030.42
2017-04-20T00:40:09.048Z,1030.38
2017-04-20T00:40:19.371Z,1030.35
2017-04-20T00:40:29.365Z,1030.35
2017-04-20T00:40:39.366Z,1030.4
2017-04-20T00:40:49.021Z,1030.35
2017-04-20T00:40:59.021Z,1030.36
2017-04-20T00:41:09.342Z,1030.34
2017-04-20T00:41:19.334Z,1030.37
2017-04-20T00:41:29.791Z,1030.4
2017-04-20T00:41:38.650Z,1030.36
2017-04-20T00:41:49.315Z,1030.42
2017-04-20T00:41:58.972Z,1030.39
2017-04-20T00:42:08.966Z,1030.33
2017-04-20T00:42:19.296Z,1030.37
2017-04-20T00:42:29.292Z,1030.4
2017-04-20T00:42:39.537Z,1030.33
2017-04-20T00:42:48.944Z,1030.37
2017-04-20T00:42:59.271Z,1030.28
2017-04-20T00:43:08.926Z,1030.29
2017-04-20T00:43:19.257Z,1030.36
2017-04-20T00:43:29.250Z,1030.34
2017-04-20T00:43:38.912Z,1030.32
2017-04-20T00:43:49.239Z,1030.35
2017-04-20T00:43:59.234Z,1030.37
2017-04-20T00:44:08.556Z,1030.32
2017-04-20T00:44:19.219Z,1030.3
2017-04-20T00:44:29.215Z,1030.33
2017-04-20T00:44:38.872Z,1030.3
2017-04-20T00:44:49.201Z,1030.35
2017-04-20T00:44:58.860Z,1030.26
2017-04-20T00:45:08.851Z,1030.34
2017-04-20T00:45:18.848Z,1030.3
2017-04-20T00:45:29.174Z,1030.31
2017-04-20T00:45:38.833Z,1030.33
2017-04-20T00:45:49.159Z,1030.33
2017-04-20T00:45:59.324Z,1030.33
2017-04-20T00:46:09.149Z,1030.3
2017-04-20T00:46:18.808Z,1030.32
2017-04-20T00:46:29.136Z,1030.31
2017-04-20T00:46:39.131Z,1030.27
2017-04-20T00:46:49.128Z,1030.31
2017-04-20T00:46:59.117Z,1030.28
2017-04-20T00:47:09.112Z,1030.35
2017-04-20T00:47:18.769Z,1030.32
2017-04-20T00:47:28.765Z,1030.33
2017-04-20T00:47:39.092Z,1030.36
2017-04-20T00:47:48.414Z,1030.35
2017-04-20T00:47:59.079Z,1030.33
2017-04-20T00:48:09.074Z,1030.3
2017-04-20T00:48:19.062Z,1030.3
2017-04-20T00:48:29.058Z,1030.33
2017-04-20T00:48:39.050Z,1030.34
2017-04-20T00:48:49.045Z,1030.36
2017-04-20T00:48:59.039Z,1030.34
2017-04-20T00:49:09.035Z,1030.31
2017-04-20T00:49:18.691Z,1030.37
2017-04-20T00:49:29.023Z,1030.37
2017-04-20T00:49:39.012Z,1030.41
2017-04-20T00:49:49.010Z,1030.39
2017-04-20T00:49:59.000Z,1030.4
2017-04-20T00:50:08.658Z,1030.42
2017-04-20T00:50:18.991Z,1030.35
2017-04-20T00:50:28.982Z,1030.38
2017-04-20T00:50:38.978Z,1030.31
2017-04-20T00:50:48.969Z,1030.35
2017-04-20T00:50:58.963Z,1030.35
2017-04-20T00:51:08.283Z,1030.32
2017-04-20T00:51:18.949Z,1030.37
2017-04-20T00:51:28.609Z,1030.38
2017-04-20T00:51:38.998Z,1030.36
2017-04-20T00:51:48.931Z,1030.37
2017-04-20T00:51:58.923Z,1030.34
2017-04-20T00:52:08.920Z,1030.35
2017-04-20T00:52:18.912Z,1030.34
2017-04-20T00:52:28.237Z,1030.42
2017-04-20T00:52:38.898Z,1030.37
2017-04-20T00:52:48.913Z,1030.37
2017-04-20T00:52:59.248Z,1030.36
2017-04-20T00:53:08.882Z,1030.36
2017-04-20T00:53:18.871Z,1030.39
2017-04-20T00:53:28.867Z,1030.38
2017-04-20T00:53:38.858Z,1030.41
2017-04-20T00:53:48.855Z,1030.42
2017-04-20T00:53:58.509Z,1030.38
2017-04-20T00:54:08.842Z,1030.4
2017-04-20T00:54:18.835Z,1030.43
2017-04-20T00:54:28.492Z,1030.34
2017-04-20T00:54:38.821Z,1030.38
2017-04-20T00:54:48.481Z,1030.38
2017-04-20T00:54:58.475Z,1030.34
2017-04-20T00:55:08.800Z,1030.35
2017-04-20T00:55:18.796Z,1030.41
2017-04-20T00:55:28.786Z,1030.4
2017-04-20T00:55:38.446Z,1030.41
2017-04-20T00:55:48.779Z,1030.46
2017-04-20T00:55:58.436Z,1030.39
2017-04-20T00:56:08.763Z,1030.44
2017-04-20T00:56:18.423Z,1030.33
2017-04-20T00:56:28.751Z,1030.35
2017-04-20T00:56:38.745Z,1030.4
2017-04-20T00:56:48.738Z,1030.3
2017-04-20T00:56:58.729Z,1030.41
2017-04-20T00:57:08.392Z,1030.37
2017-04-20T00:57:18.759Z,1030.34
2017-04-20T00:57:28.712Z,1030.37
2017-04-20T00:57:38.973Z,1030.32
2017-04-20T00:57:48.365Z,1030.36
2017-04-20T00:57:58.693Z,1030.36
2017-04-20T00:58:08.350Z,1030.35
2017-04-20T00:58:18.345Z,1030.39
2017-04-20T00:58:28.676Z,1030.35
2017-04-20T00:58:38.669Z,1030.38
2017-04-20T00:58:48.328Z,1030.38
2017-04-20T00:58:58.655Z,1030.35
2017-04-20T00:59:08.315Z,1030.33
2017-04-20T00:59:18.642Z,1030.36
2017-04-20T00:59:28.762Z,1030.34
2017-04-20T00:59:38.293Z,1030.31
2017-04-20T00:59:48.288Z,1030.33
2017-04-20T00:59:58.614Z,1030.34
2017-04-20T01:00:08.607Z,1030.33
2017-04-20T01:00:18.600Z,1030.36
2017-04-20T01:00:28.594Z,1030.4
2017-04-20T01:00:38.591Z,1030.32
2017-04-20T01:00:48.583Z,1030.34
2017-04-20T01:00:58.950Z,1030.33
2017-04-20T01:01:08.238Z,1030.3
2017-04-20T01:01:18.563Z,1030.32
2017-04-20T01:01:28.557Z,1030.32
2017-04-20T01:01:38.553Z,1030.34
2017-04-20T01:01:48.324Z,1030.28
2017-04-20T01:01:58.538Z,1030.29
2017-04-20T01:02:08.532Z,1030.28
2017-04-20T01:02:18.528Z,1030.33
2017-04-20T01:02:28.519Z,1030.31
2017-04-20T01:02:38.427Z,1030.3
2017-04-20T01:02:48.169Z,1030.28
2017-04-20T01:02:58.499Z,1030.28
2017-04-20T01:03:08.156Z,1030.28
2017-04-20T01:03:18.489Z,1030.29
2017-04-20T01:03:28.479Z,1030.26
2017-04-20T01:03:37.805Z,1030.21
2017-04-20T01:03:48.466Z,1030.27
2017-04-20T01:03:57.789Z,1030.22
2017-04-20T01:04:08.453Z,1030.27
2017-04-20T01:04:18.445Z,1030.31
2017-04-20T01:04:28.107Z,1030.25
2017-04-20T01:04:38.435Z,1030.26
2017-04-20T01:04:48.427Z,1030.26
2017-04-20T01:04:58.423Z,1030.24
2017-04-20T01:05:08.755Z,1030.28
2017-04-20T01:05:18.074Z,1030.25
2017-04-20T01:05:28.416Z,1030.29
2017-04-20T01:05:38.395Z,1030.23
2017-04-20T01:05:48.053Z,1030.28
2017-04-20T01:05:58.385Z,1030.24
2017-04-20T01:06:08.396Z,1030.19
2017-04-20T01:06:18.371Z,1030.23
2017-04-20T01:06:28.363Z,1030.26
2017-04-20T01:06:38.358Z,1030.3
2017-04-20T01:06:48.016Z,1030.23
2017-04-20T01:06:58.346Z,1030.26
2017-04-20T01:07:08.340Z,1030.26
2017-04-20T01:07:18.330Z,1030.28
2017-04-20T01:07:28.329Z,1030.27
2017-04-20T01:07:38.569Z,1030.28
2017-04-20T01:07:48.312Z,1030.24
2017-04-20T01:07:58.307Z,1030.26
2017-04-20T01:08:07.962Z,1030.24
2017-04-20T01:08:18.295Z,1030.25
2017-04-20T01:08:28.285Z,1030.31
2017-04-20T01:08:38.280Z,1030.25
2017-04-20T01:08:48.271Z,1030.27
2017-04-20T01:08:57.934Z,1030.3
2017-04-20T01:09:08.260Z,1030.3
2017-04-20T01:09:18.254Z,1030.28
2017-04-20T01:09:27.916Z,1030.31
2017-04-20T01:09:38.261Z,1030.29
2017-04-20T01:09:48.237Z,1030.29
2017-04-20T01:09:58.228Z,1030.28
2017-04-20T01:10:08.224Z,1030.26
2017-04-20T01:10:18.216Z,1030.22
2017-04-20T01:10:27.873Z,1030.31
2017-04-20T01:10:38.205Z,1030.28
2017-04-20T01:10:48.195Z,1030.29
2017-04-20T01:10:58.192Z,1030.24
2017-04-20T01:11:08.185Z,1030.31
2017-04-20T01:11:18.175Z,1030.3
2017-04-20T01:11:28.188Z,1030.31
2017-04-20T01:11:38.162Z,1030.28
2017-04-20T01:11:47.824Z,1030.23
2017-04-20T01:11:58.150Z,1030.25
2017-04-20T01:12:08.147Z,1030.28
2017-04-20T01:12:18.139Z,1030.26
2017-04-20T01:12:28.131Z,1030.27
2017-04-20T01:12:38.127Z,1030.25
2017-04-20T01:12:48.117Z,1030.31
2017-04-20T01:12:57.909Z,1030.29
2017-04-20T01:13:08.110Z,1030.26
2017-04-20T01:13:18.102Z,1030.3
2017-04-20T01:13:28.092Z,1030.26
2017-04-20T01:13:38.457Z,1030.26
2017-04-20T01:13:48.080Z,1030.26
2017-04-20T01:13:57.405Z,1030.28
2017-04-20T01:14:07.732Z,1030.27
2017-04-20T01:14:17.727Z,1030.26
2017-04-20T01:14:28.053Z,1030.31
2017-04-20T01:14:38.047Z,1030.31
2017-04-20T01:14:48.394Z,1030.26
2017-04-20T01:14:58.034Z,1030.31
2017-04-20T01:15:08.030Z,1030.29
2017-04-20T01:15:17.694Z,1030.29
2017-04-20T01:15:28.019Z,1030.3
2017-04-20T01:15:38.012Z,1030.28
2017-04-20T01:15:47.671Z,1030.27
2017-04-20T01:15:57.997Z,1030.3
2017-04-20T01:16:07.657Z,1030.29
2017-04-20T01:16:17.986Z,1030.25
2017-04-20T01:16:27.979Z,1030.27
2017-04-20T01:16:37.969Z,1030.24
2017-04-20T01:16:47.627Z,1030.3
2017-04-20T01:16:57.958Z,1030.29
2017-04-20T01:17:07.951Z,1030.27
2017-04-20T01:17:17.610Z,1030.28
2017-04-20T01:17:27.941Z,1030.3
2017-04-20T01:17:37.595Z,1030.29
2017-04-20T01:17:47.256Z,1030.32
2017-04-20T01:17:57.918Z,1030.26
2017-04-20T01:18:07.912Z,1030.29
2017-04-20T01:18:17.906Z,1030.27
2017-04-20T01:18:27.902Z,1030.26
2017-04-20T01:18:38.270Z,1030.3
2017-04-20T01:18:47.552Z,1030.28
2017-04-20T01:18:57.882Z,1030.33
2017-04-20T01:19:07.875Z,1030.31
2017-04-20T01:19:17.533Z,1030.33
2017-04-20T01:19:27.860Z,1030.26
2017-04-20T01:19:37.855Z,1030.28
2017-04-20T01:19:47.849Z,1030.31
2017-04-20T01:19:57.843Z,1030.29
2017-04-20T01:20:08.191Z,1030.29
2017-04-20T01:20:17.501Z,1030.3
2017-04-20T01:20:27.824Z,1030.33
2017-04-20T01:20:37.815Z,1030.26
2017-04-20T01:20:47.602Z,1030.37
2017-04-20T01:20:57.801Z,1030.3
2017-04-20T01:21:07.797Z,1030.31
2017-04-20T01:21:17.791Z,1030.38
2017-04-20T01:21:27.785Z,1030.28
2017-04-20T01:21:37.777Z,1030.32
2017-04-20T01:21:47.771Z,1030.31
2017-04-20T01:21:57.431Z,1030.32
2017-04-20T01:22:07.757Z,1030.25
2017-04-20T01:22:17.751Z,1030.33
2017-04-20T01:22:27.745Z,1030.35
2017-04-20T01:22:37.736Z,1030.32
2017-04-20T01:22:47.398Z,1030.28
2017-04-20T01:22:57.390Z,1030.31
2017-04-20T01:23:07.384Z,1030.38
2017-04-20T01:23:17.713Z,1030.33
2017-04-20T01:23:27.036Z,1030.34
2017-04-20T01:23:37.704Z,1030.31
2017-04-20T01:23:47.696Z,1030.26
2017-04-20T01:23:57.688Z,1030.3
2017-04-20T01:24:07.347Z,1030.34
2017-04-20T01:24:17.676Z,1030.36
2017-04-20T01:24:27.331Z,1030.29
2017-04-20T01:24:37.662Z,1030.33
2017-04-20T01:24:47.655Z,1030.27
2017-04-20T01:24:57.647Z,1030.3
2017-04-20T01:25:07.308Z,1030.32
2017-04-20T01:25:17.302Z,1030.28
2017-04-20T01:25:27.632Z,1030.29
2017-04-20T01:25:37.625Z,1030.27
2017-04-20T01:25:47.616Z,1030.29
2017-04-20T01:25:57.614Z,1030.32
2017-04-20T01:26:07.271Z,1030.29
2017-04-20T01:26:17.599Z,1030.3
2017-04-20T01:26:27.592Z,1030.28
2017-04-20T01:26:37.585Z,1030.31
2017-04-20T01:26:47.577Z,1030.29
2017-04-20T01:26:57.571Z,1030.3
2017-04-20T01:27:07.564Z,1030.31
2017-04-20T01:27:17.914Z,1030.33
2017-04-20T01:27:27.706Z,1030.3
2017-04-20T01:27:37.460Z,1030.27
2017-04-20T01:27:47.541Z,1030.29
2017-04-20T01:27:57.532Z,1030.32
2017-04-20T01:28:07.190Z,1030.34
2017-04-20T01:28:17.522Z,1030.34
2017-04-20T01:28:27.512Z,1030.31
2017-04-20T01:28:37.509Z,1030.34
2017-04-20T01:28:46.882Z,1030.35
2017-04-20T01:28:57.494Z,1030.3
2017-04-20T01:29:07.489Z,1030.35
2017-04-20T01:29:17.847Z,1030.3
2017-04-20T01:29:27.474Z,1030.32
2017-04-20T01:29:37.468Z,1030.32
2017-04-20T01:29:47.126Z,1030.34
2017-04-20T01:29:57.529Z,1030.27
2017-04-20T01:30:07.116Z,1030.33
2017-04-20T01:30:17.109Z,1030.3
2017-04-20T01:30:27.439Z,1030.31
2017-04-20T01:30:37.431Z,1030.39
2017-04-20T01:30:47.423Z,1030.35
2017-04-20T01:30:57.082Z,1030.32
2017-04-20T01:31:07.408Z,1030.3
2017-04-20T01:31:17.068Z,1030.29
2017-04-20T01:31:27.398Z,1030.29
2017-04-20T01:31:37.393Z,1030.31
2017-04-20T01:31:47.381Z,1030.36
2017-04-20T01:31:57.391Z,1030.29
2017-04-20T01:32:07.370Z,1030.3
2017-04-20T01:32:17.043Z,1030.31
2017-04-20T01:32:27.022Z,1030.32
2017-04-20T01:32:37.603Z,1030.35
2017-04-20T01:32:47.697Z,1030.31
2017-04-20T01:32:57.361Z,1030.32
2017-04-20T01:33:07.331Z,1030.38
2017-04-20T01:33:16.988Z,1030.33
2017-04-20T01:33:27.321Z,1030.32
2017-04-20T01:33:37.313Z,1030.34
2017-04-20T01:33:46.967Z,1030.25
2017-04-20T01:33:57.298Z,1030.28
2017-04-20T01:34:07.294Z,1030.3
2017-04-20T01:34:17.289Z,1030.26
2017-04-20T01:34:26.945Z,1030.27
2017-04-20T01:34:36.938Z,1030.31
2017-04-20T01:34:47.271Z,1030.31
2017-04-20T01:34:56.927Z,1030.31
2017-04-20T01:35:07.252Z,1030.33
2017-04-20T01:35:17.249Z,1030.32
2017-04-20T01:35:27.240Z,1030.29
2017-04-20T01:35:37.236Z,1030.33
2017-04-20T01:35:47.231Z,1030.34
2017-04-20T01:35:57.224Z,1030.34
2017-04-20T01:36:07.217Z,1030.32
2017-04-20T01:36:16.874Z,1030.29
2017-04-20T01:36:27.202Z,1030.34
2017-04-20T01:36:37.196Z,1030.32
2017-04-20T01:36:47.193Z,1030.34
2017-04-20T01:36:57.184Z,1030.3
2017-04-20T01:37:07.195Z,1030.35
2017-04-20T01:37:17.172Z,1030.3
2017-04-20T01:37:26.827Z,1030.27
2017-04-20T01:37:37.157Z,1030.34
2017-04-20T01:37:47.151Z,1030.32
2017-04-20T01:37:56.811Z,1030.34
2017-04-20T01:38:07.139Z,1030.3
2017-04-20T01:38:17.131Z,1030.31
2017-04-20T01:38:27.124Z,1030.33
2017-04-20T01:38:37.119Z,1030.34
2017-04-20T01:38:47.113Z,1030.32
2017-04-20T01:38:57.104Z,1030.38
2017-04-20T01:39:07.098Z,1030.28
2017-04-20T01:39:17.094Z,1030.32
2017-04-20T01:39:27.088Z,1030.35
2017-04-20T01:39:37.079Z,1030.36
2017-04-20T01:39:47.076Z,1030.32
2017-04-20T01:39:57.066Z,1030.28
2017-04-20T01:40:06.732Z,1030.32
2017-04-20T01:40:17.056Z,1030.32
2017-04-20T01:40:27.050Z,1030.34
2017-04-20T01:40:37.041Z,1030.32
2017-04-20T01:40:47.037Z,1030.33
2017-04-20T01:40:57.030Z,1030.3
2017-04-20T01:41:07.024Z,1030.33
2017-04-20T01:41:17.014Z,1030.33
2017-04-20T01:41:27.009Z,1030.3
2017-04-20T01:41:37.005Z,1030.29
2017-04-20T01:41:46.998Z,1030.28
2017-04-20T01:41:56.992Z,1030.32
2017-04-20T01:42:06.983Z,1030.34
2017-04-20T01:42:16.977Z,1030.3
2017-04-20T01:42:26.971Z,1030.32
2017-04-20T01:42:36.962Z,1030.32
2017-04-20T01:42:46.957Z,1030.36
2017-04-20T01:42:56.613Z,1030.37
2017-04-20T01:43:06.943Z,1030.35
2017-04-20T01:43:16.940Z,1030.35
2017-04-20T01:43:26.595Z,1030.35
2017-04-20T01:43:36.922Z,1030.34
2017-04-20T01:43:46.928Z,1030.32
2017-04-20T01:43:56.915Z,1030.35
2017-04-20T01:44:06.574Z,1030.35
2017-04-20T01:44:16.564Z,1030.35
2017-04-20T01:44:26.894Z,1030.35
2017-04-20T01:44:36.885Z,1030.35
2017-04-20T01:44:46.542Z,1030.31
2017-04-20T01:44:56.200Z,1030.39
2017-04-20T01:45:06.871Z,1030.32
2017-04-20T01:45:16.525Z,1030.35
2017-04-20T01:45:26.857Z,1030.38
2017-04-20T01:45:36.845Z,1030.35
2017-04-20T01:45:46.840Z,1030.33
2017-04-20T01:45:56.831Z,1030.37
2017-04-20T01:46:06.825Z,1030.32
2017-04-20T01:46:16.820Z,1030.3
2017-04-20T01:46:26.815Z,1030.34
2017-04-20T01:46:36.473Z,1030.34
2017-04-20T01:46:46.965Z,1030.34
2017-04-20T01:46:56.796Z,1030.32
2017-04-20T01:47:06.789Z,1030.29
2017-04-20T01:47:16.781Z,1030.3
2017-04-20T01:47:26.778Z,1030.35
2017-04-20T01:47:37.124Z,1030.29
2017-04-20T01:47:46.763Z,1030.38
2017-04-20T01:47:56.756Z,1030.35
2017-04-20T01:48:06.414Z,1030.34
2017-04-20T01:48:16.409Z,1030.39
2017-04-20T01:48:26.408Z,1030.36
2017-04-20T01:48:36.398Z,1030.35
2017-04-20T01:48:46.725Z,1030.28
2017-04-20T01:48:56.720Z,1030.32
2017-04-20T01:49:06.709Z,1030.37
2017-04-20T01:49:16.705Z,1030.33
2017-04-20T01:49:26.698Z,1030.4
2017-04-20T01:49:36.359Z,1030.33
2017-04-20T01:49:47.039Z,1030.35
2017-04-20T01:49:56.680Z,1030.32
2017-04-20T01:50:06.339Z,1030.28
2017-04-20T01:50:16.666Z,1030.36
2017-04-20T01:50:26.662Z,1030.3
2017-04-20T01:50:36.655Z,1030.28
2017-04-20T01:50:46.644Z,1030.27
2017-04-20T01:50:56.991Z,1030.33
2017-04-20T01:51:06.633Z,1030.3
2017-04-20T01:51:16.371Z,1030.33
2017-04-20T01:51:26.639Z,1030.27
2017-04-20T01:51:36.616Z,1030.29
2017-04-20T01:51:45.938Z,1030.28
2017-04-20T01:51:56.600Z,1030.32
2017-04-20T01:52:06.595Z,1030.29
2017-04-20T01:52:16.253Z,1030.24
2017-04-20T01:52:26.584Z,1030.33
2017-04-20T01:52:36.490Z,1030.31
2017-04-20T01:52:46.570Z,1030.3
2017-04-20T01:52:56.911Z,1030.28
2017-04-20T01:53:06.555Z,1030.29
2017-04-20T01:53:16.549Z,1030.29
2017-04-20T01:53:26.542Z,1030.3
2017-04-20T01:53:36.535Z,1030.27
2017-04-20T01:53:46.535Z,1030.33
2017-04-20T01:53:56.523Z,1030.29
2017-04-20T01:54:06.517Z,1030.32
2017-04-20T01:54:16.510Z,1030.23
2017-04-20T01:54:26.504Z,1030.28
2017-04-20T01:54:36.496Z,1030.26
2017-04-20T01:54:46.505Z,1030.31
2017-04-20T01:54:56.484Z,1030.25
2017-04-20T01:55:06.848Z,1030.25
2017-04-20T01:55:16.138Z,1030.32
2017-04-20T01:55:26.465Z,1030.27
2017-04-20T01:55:36.460Z,1030.3
2017-04-20T01:55:46.672Z,1030.3
2017-04-20T01:55:56.445Z,1030.3
2017-04-20T01:56:06.106Z,1030.25
2017-04-20T01:56:16.434Z,1030.26
2017-04-20T01:56:26.428Z,1030.28
2017-04-20T01:56:36.418Z,1030.27
2017-04-20T01:56:45.745Z,1030.3
2017-04-20T01:56:56.405Z,1030.33
2017-04-20T01:57:06.399Z,1030.3
2017-04-20T01:57:16.393Z,1030.26
2017-04-20T01:57:26.387Z,1030.26
2017-04-20T01:57:36.983Z,1030.36
2017-04-20T01:57:46.373Z,1030.31
2017-04-20T01:57:56.034Z,1030.29
2017-04-20T01:58:06.029Z,1030.32
2017-04-20T01:58:16.354Z,1030.3
2017-04-20T01:58:26.351Z,1030.26
2017-04-20T01:58:36.342Z,1030.35
2017-04-20T01:58:45.667Z,1030.29
2017-04-20T01:58:56.327Z,1030.33
2017-04-20T01:59:06.326Z,1030.3
2017-04-20T01:59:16.314Z,1030.37
2017-04-20T01:59:26.310Z,1030.39
2017-04-20T01:59:35.969Z,1030.3
2017-04-20T01:59:46.295Z,1030.26
2017-04-20T01:59:56.293Z,1030.25
2017-04-20T02:00:06.282Z,1030.3
2017-04-20T02:00:16.817Z,1030.27
2017-04-20T02:00:25.938Z,1030.28
2017-04-20T02:00:36.265Z,1030.25
2017-04-20T02:00:46.259Z,1030.32
2017-04-20T02:00:55.915Z,1030.35
2017-04-20T02:01:06.246Z,1030.31
2017-04-20T02:01:16.237Z,1030.27